Time;durP1;ratioP1;P1;durP2;ratioP2;P2;SDS_P1;SDS_P2;PMS_P1;PMS_P2;Temp;Humidity;BMP_temperature;BMP_pressure;BME280_temperature;BME280_humidity;BME280_pressure;Samples;Min_cycle;Max_cycle;Signal;HPM_P1;HPM_P2
2023/08/31 00:00:32;;;;;;;;;6.00;3.00;;;;;19.31;48.86;100736.91;5057444;28;45304;-69
2023/08/31 00:02:58;;;;;;;;;3.00;3.00;;;;;19.29;48.99;100730.06;5057285;28;45347;-70
2023/08/31 00:05:27;;;;;;;;;3.67;2.00;;;;;19.20;49.13;100715.06;5057048;28;45448;-70
2023/08/31 00:07:52;;;;;;;;;2.67;1.00;;;;;19.31;49.13;100738.78;5057206;28;45275;-72
2023/08/31 00:10:17;;;;;;;;;5.67;2.33;;;;;19.01;48.93;100684.31;5056039;28;45253;-69
2023/08/31 00:12:43;;;;;;;;;3.33;3.33;;;;;19.32;49.17;100737.75;5057354;28;45379;-71
2023/08/31 00:15:09;;;;;;;;;2.33;1.33;;;;;19.33;48.83;100747.50;5056999;28;46720;-69
2023/08/31 00:17:35;;;;;;;;;1.67;1.67;;;;;19.30;48.90;100756.81;5056774;28;45269;-70
2023/08/31 00:20:00;;;;;;;;;4.67;1.67;;;;;18.39;48.81;100605.25;5056845;28;45554;-70
2023/08/31 00:22:26;;;;;;;;;3.33;3.33;;;;;19.27;49.00;100753.69;5057384;28;45294;-70
2023/08/31 00:24:51;;;;;;;;;4.33;3.33;;;;;19.23;48.85;100738.97;5055408;28;47444;-71
2023/08/31 00:27:17;;;;;;;;;3.67;3.00;;;;;19.23;48.99;100747.03;5056827;28;45262;-70
2023/08/31 00:29:45;;;;;;;;;3.00;3.00;;;;;18.93;49.16;100706.88;5057136;28;45375;-69
2023/08/31 00:32:11;;;;;;;;;3.33;2.00;;;;;19.01;49.38;100732.81;5057155;28;45572;-70
2023/08/31 00:34:37;;;;;;;;;4.00;2.33;;;;;19.07;49.43;100746.34;5056367;28;45601;-70
2023/08/31 00:37:02;;;;;;;;;4.00;4.00;;;;;19.06;49.59;100739.28;5056954;28;45433;-68
2023/08/31 00:39:28;;;;;;;;;2.33;2.33;;;;;19.14;49.54;100743.66;5056240;28;45942;-70
2023/08/31 00:41:53;;;;;;;;;1.67;1.67;;;;;19.14;49.48;100727.50;5056785;28;45564;-70
2023/08/31 00:44:19;;;;;;;;;2.33;2.33;;;;;19.06;49.19;100706.13;5056212;28;61812;-70
2023/08/31 00:46:44;;;;;;;;;5.33;1.33;;;;;19.11;49.24;100717.97;5056811;28;45339;-70
2023/08/31 00:49:10;;;;;;;;;4.00;2.00;;;;;18.84;49.43;100678.47;5056656;28;45426;-71
2023/08/31 00:51:36;;;;;;;;;2.33;2.33;;;;;18.83;49.63;100685.72;5056614;28;45980;-71
2023/08/31 00:54:02;;;;;;;;;2.00;2.00;;;;;19.13;49.83;100736.63;5056513;28;46510;-71
2023/08/31 00:56:28;;;;;;;;;3.00;3.00;;;;;19.02;49.41;100723.69;5056595;28;45517;-70
2023/08/31 00:58:54;;;;;;;;;2.00;2.00;;;;;19.02;49.50;100716.47;5056557;28;45296;-70
2023/08/31 01:01:57;;;;;;;;;3.33;3.00;;;;;19.06;49.57;100725.81;5056917;28;45403;-70
2023/08/31 01:05:03;;;;;;;;;7.67;4.00;;;;;19.01;49.81;100724.72;5035908;28;46454;-70
2023/08/31 01:07:44;;;;;;;;;1.33;1.33;;;;;19.07;49.45;100729.34;5038159;28;45489;-71
2023/08/31 01:10:24;;;;;;;;;2.00;0.67;;;;;18.87;49.71;100713.06;5060223;28;45217;-70
2023/08/31 01:12:55;;;;;;;;;1.00;0.00;;;;;19.02;49.63;100734.47;5058587;28;45533;-71
2023/08/31 01:15:21;;;;;;;;;3.67;3.67;;;;;18.79;50.06;100702.44;5059822;28;46348;-70
2023/08/31 01:17:56;;;;;;;;;3.33;3.00;;;;;18.95;50.01;100729.06;5057993;28;45336;-71
2023/08/31 01:20:47;;;;;;;;;2.00;2.00;;;;;18.92;50.05;100732.16;5060046;28;45235;-71
2023/08/31 01:23:19;;;;;;;;;2.33;2.00;;;;;18.88;50.16;100738.97;5059939;28;45315;-71
2023/08/31 01:25:48;;;;;;;;;2.67;1.33;;;;;18.74;49.83;100712.97;5059672;28;46595;-71
2023/08/31 01:28:13;;;;;;;;;2.33;2.00;;;;;18.89;50.02;100748.72;5059642;28;45492;-70
2023/08/31 01:30:38;;;;;;;;;3.00;2.67;;;;;18.32;50.18;100663.59;5059938;28;45340;-70
2023/08/31 01:33:04;;;;;;;;;2.33;1.00;;;;;18.83;50.13;100746.84;5059917;28;45431;-71
2023/08/31 01:35:54;;;;;;;;;2.67;2.00;;;;;18.87;50.16;100742.69;5058348;28;48038;-69
2023/08/31 01:38:26;;;;;;;;;4.67;2.00;;;;;18.88;50.21;100746.22;5059543;28;45347;-70
2023/08/31 01:41:00;;;;;;;;;2.00;2.00;;;;;18.81;50.39;100743.47;5059430;28;45434;-69
2023/08/31 01:43:27;;;;;;;;;3.67;2.00;;;;;18.82;50.38;100743.31;5059774;28;45486;-71
2023/08/31 01:45:53;;;;;;;;;3.00;2.00;;;;;18.72;50.23;100717.75;5059065;28;46241;-70
2023/08/31 01:48:18;;;;;;;;;1.00;1.00;;;;;18.71;50.46;100725.00;5058293;28;45360;-69
2023/08/31 01:50:44;;;;;;;;;2.00;2.00;;;;;18.85;50.42;100747.47;5058023;28;45432;-71
2023/08/31 01:53:09;;;;;;;;;2.00;2.00;;;;;18.66;50.31;100718.53;5059661;28;45314;-71
2023/08/31 01:55:35;;;;;;;;;2.67;2.67;;;;;18.78;50.37;100733.09;5059274;28;45721;-71
2023/08/31 01:58:00;;;;;;;;;3.00;1.67;;;;;18.60;50.58;100698.56;5059343;28;45448;-71
2023/08/31 02:00:26;;;;;;;;;4.33;2.33;;;;;18.79;50.46;100729.38;5059389;28;45327;-70
2023/08/31 02:02:51;;;;;;;;;1.67;1.67;;;;;18.67;50.74;100714.81;5059238;28;45544;-70
2023/08/31 02:05:17;;;;;;;;;3.00;2.00;;;;;18.81;50.25;100735.41;5057608;28;47704;-70
2023/08/31 02:07:42;;;;;;;;;5.00;2.00;;;;;18.82;50.68;100742.44;5074805;28;45269;-71
2023/08/31 02:10:08;;;;;;;;;2.00;1.00;;;;;18.77;50.57;100732.28;5059141;28;45481;-70
2023/08/31 02:12:33;;;;;;;;;2.00;1.33;;;;;18.80;50.18;100737.25;5059328;28;45311;-70
2023/08/31 02:14:59;;;;;;;;;3.00;3.00;;;;;18.87;50.28;100742.69;5058617;28;46408;-71
2023/08/31 02:17:25;;;;;;;;;3.67;1.67;;;;;18.66;50.36;100703.22;5074284;27;45524;-71
2023/08/31 02:19:51;;;;;;;;;2.00;2.00;;;;;18.81;50.28;100732.69;5057465;28;45227;-70
2023/08/31 02:22:16;;;;;;;;;3.33;1.67;;;;;18.72;50.41;100707.78;5059104;28;45473;-70
2023/08/31 02:24:41;;;;;;;;;1.33;1.33;;;;;18.71;50.61;100708.81;5058762;28;46299;-69
2023/08/31 02:27:07;;;;;;;;;3.00;3.00;;;;;18.70;50.65;100698.25;5058262;28;57048;-71
2023/08/31 02:29:32;;;;;;;;;2.00;2.00;;;;;18.58;50.48;100689.03;5059028;28;45507;-69
2023/08/31 02:31:57;;;;;;;;;2.00;1.67;;;;;18.80;50.78;100725.66;5058802;28;45513;-69
2023/08/31 02:34:23;;;;;;;;;4.00;3.00;;;;;18.89;50.14;100729.88;5058203;28;45423;-70
2023/08/31 02:36:48;;;;;;;;;2.33;2.33;;;;;18.90;50.42;100726.13;5057356;28;45720;-70
2023/08/31 02:39:13;;;;;;;;;1.00;1.00;;;;;18.81;50.84;100721.91;5057561;28;45482;-70
2023/08/31 02:41:39;;;;;;;;;1.67;1.67;;;;;18.61;50.64;100694.84;5057619;28;45492;-71
2023/08/31 02:44:05;;;;;;;;;3.00;2.00;;;;;18.84;50.55;100730.47;5058505;28;46150;-70
2023/08/31 02:46:30;;;;;;;;;2.00;2.00;;;;;18.61;50.48;100685.94;5073940;27;45398;-72
2023/08/31 02:48:56;;;;;;;;;1.33;1.33;;;;;18.68;50.50;100703.00;5057077;28;45269;-71
2023/08/31 02:51:21;;;;;;;;;2.67;2.00;;;;;18.64;50.59;100712.53;5058779;28;45396;-69
2023/08/31 02:53:47;;;;;;;;;2.33;1.33;;;;;18.91;50.55;100748.53;5058346;28;45439;-70
2023/08/31 02:56:12;;;;;;;;;4.00;3.00;;;;;18.91;50.39;100752.03;5058391;28;45178;-71
2023/08/31 02:58:38;;;;;;;;;3.67;2.67;;;;;18.88;51.00;100744.38;5058671;28;45236;-70
2023/08/31 03:01:11;;;;;;;;;1.00;1.00;;;;;18.66;51.07;100707.78;5058537;28;45467;-71
2023/08/31 03:03:40;;;;;;;;;3.00;3.00;;;;;18.89;50.87;100743.34;5056416;28;48565;-70
2023/08/31 03:06:08;;;;;;;;;5.00;4.00;;;;;18.85;50.76;100736.69;5057878;28;45252;-69
2023/08/31 03:08:33;;;;;;;;;2.00;2.00;;;;;18.79;50.76;100735.59;5058324;28;45426;-70
2023/08/31 03:10:59;;;;;;;;;2.00;2.00;;;;;18.78;50.98;100728.53;5058391;28;45327;-76
2023/08/31 03:13:24;;;;;;;;;3.67;2.33;;;;;18.79;50.77;100732.06;5058310;28;46607;-70
2023/08/31 03:15:50;;;;;;;;;1.00;1.00;;;;;18.82;50.75;100729.84;5057622;28;45971;-70
2023/08/31 03:18:15;;;;;;;;;4.00;2.33;;;;;18.84;51.25;100727.78;5057586;28;45307;-71
2023/08/31 03:20:40;;;;;;;;;4.00;2.67;;;;;18.71;51.28;100713.38;5057976;28;45559;-71
2023/08/31 03:23:06;;;;;;;;;3.67;3.00;;;;;18.78;51.30;100733.94;5057706;28;46574;-70
2023/08/31 03:25:31;;;;;;;;;3.00;3.00;;;;;18.74;51.30;100726.44;5056199;28;65645;-69
2023/08/31 03:27:56;;;;;;;;;3.67;3.67;;;;;18.65;51.54;100706.09;5057606;28;45400;-70
2023/08/31 03:30:22;;;;;;;;;3.67;2.00;;;;;18.59;51.29;100714.91;5057870;28;45543;-69
2023/08/31 03:32:47;;;;;;;;;5.00;2.00;;;;;18.65;51.66;100727.66;5055764;28;48701;-70
2023/08/31 03:35:13;;;;;;;;;4.33;2.00;;;;;18.49;51.78;100704.50;5055293;28;45234;-70
2023/08/31 03:37:38;;;;;;;;;2.33;2.00;;;;;18.63;51.97;100724.31;5057810;28;45454;-70
2023/08/31 03:40:06;;;;;;;;;3.00;3.00;;;;;18.59;51.91;100717.59;5056479;28;45523;-71
2023/08/31 03:42:31;;;;;;;;;4.33;3.67;;;;;18.37;51.92;100681.84;5057423;28;46578;-70
2023/08/31 03:44:56;;;;;;;;;4.00;2.33;;;;;18.57;51.82;100720.50;5056508;28;60874;-70
2023/08/31 03:47:22;;;;;;;;;5.00;4.00;;;;;18.54;51.84;100726.28;5057286;28;45194;-69
2023/08/31 03:49:47;;;;;;;;;5.00;3.00;;;;;18.51;52.14;100722.13;5057381;28;45235;-70
2023/08/31 03:52:12;;;;;;;;;5.33;4.33;;;;;18.28;52.16;100683.88;5057233;28;45552;-70
2023/08/31 03:54:38;;;;;;;;;3.67;3.00;;;;;18.32;52.05;100697.75;5057163;28;45323;-70
2023/08/31 03:57:03;;;;;;;;;2.67;2.67;;;;;18.33;52.08;100692.19;5057419;28;45298;-70
2023/08/31 03:59:28;;;;;;;;;3.67;2.33;;;;;18.19;52.29;100680.47;5057420;28;45487;-70
2023/08/31 04:01:54;;;;;;;;;5.33;5.33;;;;;18.43;52.49;100727.66;5057234;28;46373;-70
2023/08/31 04:04:19;;;;;;;;;5.00;3.00;;;;;18.44;52.67;100726.66;5056787;28;45435;-69
2023/08/31 04:06:45;;;;;;;;;2.00;2.00;;;;;18.36;52.61;100723.25;5057042;28;45352;-70
2023/08/31 04:09:10;;;;;;;;;2.33;1.33;;;;;18.38;52.69;100732.78;5057708;28;45314;-70
2023/08/31 04:11:35;;;;;;;;;3.00;3.00;;;;;18.20;52.86;100702.81;5056341;28;60724;-70
2023/08/31 04:14:01;;;;;;;;;2.67;2.00;;;;;18.38;52.91;100727.41;5055423;28;45647;-70
2023/08/31 04:16:26;;;;;;;;;3.67;3.67;;;;;18.34;52.52;100723.44;5055519;28;45376;-70
2023/08/31 04:18:51;;;;;;;;;2.00;2.00;;;;;18.35;52.78;100726.97;5057009;28;45240;-71
2023/08/31 04:21:18;;;;;;;;;3.67;3.00;;;;;18.29;52.71;100731.28;5056737;28;46412;-70
2023/08/31 04:23:43;;;;;;;;;3.67;3.00;;;;;18.38;52.61;100731.94;5055571;28;45897;-71
2023/08/31 04:26:11;;;;;;;;;4.00;2.67;;;;;18.02;52.80;100683.63;5055807;28;45455;-69
2023/08/31 04:28:37;;;;;;;;;3.00;2.00;;;;;18.35;52.95;100729.66;5057077;28;45882;-69
2023/08/31 04:31:05;;;;;;;;;3.33;2.33;;;;;18.40;52.47;100733.41;5056698;28;46276;-71
2023/08/31 04:33:30;;;;;;;;;2.33;2.33;;;;;18.38;52.76;100732.78;5056578;28;45340;-69
2023/08/31 04:35:55;;;;;;;;;3.25;2.00;;;;;18.33;53.48;100737.09;5055366;28;45497;-71
2023/08/31 04:38:21;;;;;;;;;2.67;2.00;;;;;18.32;53.89;100736.28;5059636;28;45312;-69
2023/08/31 04:40:46;;;;;;;;;3.00;3.00;;;;;18.29;53.61;100736.66;5059787;28;51949;-70
2023/08/31 04:43:11;;;;;;;;;2.33;2.33;;;;;18.26;53.84;100739.75;5059951;28;51296;-72
2023/08/31 04:45:37;;;;;;;;;2.33;2.33;;;;;18.26;53.63;100750.50;5059737;28;54372;-69
2023/08/31 04:48:03;;;;;;;;;4.67;2.33;;;;;18.23;53.91;100740.97;5060038;28;45355;-69
2023/08/31 04:50:28;;;;;;;;;2.33;2.00;;;;;18.22;53.81;100743.84;5060114;28;45930;-69
2023/08/31 04:52:54;;;;;;;;;3.00;3.00;;;;;18.13;53.68;100727.00;5060122;28;45236;-69
2023/08/31 04:55:21;;;;;;;;;2.67;2.67;;;;;18.23;53.49;100745.53;5060025;28;50430;-70
2023/08/31 04:57:47;;;;;;;;;5.00;4.00;;;;;18.26;53.76;100757.75;5060160;28;45265;-70
2023/08/31 05:00:12;;;;;;;;;4.67;2.00;;;;;18.01;53.54;100709.69;5058968;28;47687;-72
2023/08/31 05:02:38;;;;;;;;;2.00;2.00;;;;;18.24;53.33;100760.63;5059024;28;45932;-70
2023/08/31 05:05:04;;;;;;;;;5.00;1.33;;;;;18.26;53.09;100766.66;5059274;28;54393;-69
2023/08/31 05:07:30;;;;;;;;;2.33;2.33;;;;;18.27;53.23;100767.50;5060062;28;45470;-69
2023/08/31 05:09:55;;;;;;;;;3.00;3.00;;;;;18.23;52.97;100750.91;5059550;28;46149;-70
2023/08/31 05:12:20;;;;;;;;;31.33;28.33;;;;;18.11;53.11;100720.16;5059573;28;51510;-70
2023/08/31 05:14:46;;;;;;;;;7.00;6.00;;;;;18.34;52.85;100760.28;5059445;28;46763;-69
2023/08/31 05:17:11;;;;;;;;;3.00;3.00;;;;;18.37;52.39;100763.44;5060006;28;45331;-70
2023/08/31 05:19:36;;;;;;;;;1.33;1.33;;;;;18.32;52.71;100749.72;5058973;28;57407;-70
2023/08/31 05:22:02;;;;;;;;;2.67;2.33;;;;;18.40;52.75;100757.66;5059710;28;45411;-70
2023/08/31 05:24:27;;;;;;;;;3.00;3.00;;;;;18.39;52.72;100753.28;5059575;28;45241;-70
2023/08/31 05:26:52;;;;;;;;;4.00;4.00;;;;;18.09;52.30;100706.06;5060050;28;45439;-70
2023/08/31 05:29:18;;;;;;;;;3.00;3.00;;;;;18.41;52.44;100759.31;5059259;28;52959;-71
2023/08/31 05:31:43;;;;;;;;;2.67;2.67;;;;;18.42;52.72;100757.44;5059168;28;60142;-70
2023/08/31 05:34:16;;;;;;;;;4.67;3.67;;;;;18.52;52.29;100776.81;5058074;28;45254;-70
2023/08/31 05:36:41;;;;;;;;;3.67;3.67;;;;;18.46;52.21;100764.97;5075444;27;45359;-70
2023/08/31 05:39:07;;;;;;;;;3.00;3.00;;;;;18.44;52.46;100761.63;5059160;28;46051;-70
2023/08/31 05:41:33;;;;;;;;;2.33;1.67;;;;;18.41;52.20;100751.22;5058092;28;45462;-70
2023/08/31 05:43:58;;;;;;;;;2.00;2.00;;;;;18.61;52.18;100778.31;5050599;28;45343;-70
2023/08/31 05:46:24;;;;;;;;;3.00;3.00;;;;;18.60;52.01;100778.50;5059392;28;45264;-70
2023/08/31 05:48:49;;;;;;;;;3.33;2.00;;;;;18.58;52.24;100781.41;5058171;28;46519;-72
2023/08/31 05:51:14;;;;;;;;;13.00;9.33;;;;;18.58;52.18;100777.88;5056730;28;53511;-71
2023/08/31 05:53:39;;;;;;;;;2.33;1.33;;;;;18.57;52.48;100781.59;5059482;28;45228;-70
2023/08/31 05:56:06;;;;;;;;;4.25;3.25;;;;;18.62;52.28;100787.22;5059455;28;45619;-71
2023/08/31 05:58:33;;;;;;;;;3.00;2.00;;;;;18.56;52.44;100772.69;5059236;28;45721;-70
2023/08/31 06:00:59;;;;;;;;;1.33;1.33;;;;;18.61;52.34;100793.63;5058980;28;45403;-69
2023/08/31 06:03:25;;;;;;;;;4.00;3.00;;;;;18.21;52.56;100734.09;5074249;28;45422;-70
2023/08/31 06:05:50;;;;;;;;;3.00;2.00;;;;;18.21;53.11;100742.16;5059160;28;45493;-70
2023/08/31 06:08:15;;;;;;;;;4.33;3.33;;;;;18.42;53.04;100785.22;5058753;28;45475;-70
2023/08/31 06:10:41;;;;;;;;;2.33;2.00;;;;;18.21;53.08;100736.78;5058988;28;45648;-69
2023/08/31 06:13:06;;;;;;;;;3.00;3.00;;;;;18.60;52.79;100795.50;5074304;27;45380;-69
2023/08/31 06:15:32;;;;;;;;;4.33;2.00;;;;;18.39;52.73;100761.38;5058878;28;45210;-70
2023/08/31 06:17:57;;;;;;;;;0.00;0.00;;;;;18.64;52.92;100793.31;5058371;28;46643;-70
2023/08/31 06:20:23;;;;;;;;;3.67;3.67;;;;;18.49;53.09;100761.88;5058180;28;45343;-70
2023/08/31 06:22:48;;;;;;;;;7.00;3.67;;;;;18.42;53.05;100749.38;5058662;28;45366;-69
2023/08/31 06:25:16;;;;;;;;;3.33;2.00;;;;;18.63;52.87;100772.78;5058439;28;45478;-70
2023/08/31 06:27:42;;;;;;;;;3.33;3.33;;;;;18.76;52.80;100791.72;5058313;28;45541;-71
2023/08/31 06:30:08;;;;;;;;;2.00;2.00;;;;;18.78;52.55;100800.44;5058360;28;45861;-70
2023/08/31 06:32:34;;;;;;;;;1.33;1.33;;;;;18.78;53.15;100787.78;5058079;28;45398;-70
2023/08/31 06:34:59;;;;;;;;;5.67;3.00;;;;;18.61;52.91;100762.16;5074130;28;45625;-70
2023/08/31 06:37:24;;;;;;;;;4.33;4.33;;;;;18.70;53.07;100779.06;5073502;28;54396;-70
2023/08/31 06:39:50;;;;;;;;;3.00;3.00;;;;;18.80;53.67;100801.91;5058237;28;45287;-70
2023/08/31 06:42:15;;;;;;;;;4.33;4.00;;;;;18.78;53.96;100798.56;5058521;28;45291;-70
2023/08/31 06:44:40;;;;;;;;;4.00;2.00;;;;;18.79;54.32;100799.41;5058313;28;45371;-70
2023/08/31 06:47:06;;;;;;;;;3.00;3.00;;;;;18.76;54.22;100797.09;5057912;28;46308;-71
2023/08/31 06:49:32;;;;;;;;;2.00;2.00;;;;;18.81;54.22;100792.78;5056506;28;46269;-71
2023/08/31 06:51:59;;;;;;;;;3.33;3.00;;;;;18.64;53.93;100758.31;5073395;28;45521;-71
2023/08/31 06:54:24;;;;;;;;;3.67;3.00;;;;;18.94;53.76;100808.22;5058070;28;45636;-71
2023/08/31 06:56:50;;;;;;;;;2.67;2.67;;;;;18.99;53.63;100811.16;5057264;28;53618;-70
2023/08/31 06:59:15;;;;;;;;;6.33;3.00;;;;;19.04;53.34;100802.50;5057436;28;45276;-69
2023/08/31 07:01:40;;;;;;;;;3.33;3.33;;;;;19.14;53.12;100803.78;5056633;28;45451;-70
2023/08/31 07:04:06;;;;;;;;;6.67;3.00;;;;;19.15;53.15;100816.22;5057894;28;45261;-69
2023/08/31 07:06:34;;;;;;;;;5.00;2.00;;;;;19.07;52.97;100789.47;5057825;28;46905;-70
2023/08/31 07:09:00;;;;;;;;;8.00;4.33;;;;;19.07;53.01;100794.84;5057532;28;45411;-70
2023/08/31 07:11:26;;;;;;;;;7.00;5.00;;;;;19.25;52.84;100815.06;5057844;28;45324;-75
2023/08/31 07:13:51;;;;;;;;;4.67;4.00;;;;;19.30;52.15;100813.41;5055915;28;45516;-75
2023/08/31 07:16:16;;;;;;;;;4.00;3.00;;;;;19.40;52.14;100819.25;5056832;28;48872;-68
2023/08/31 07:18:42;;;;;;;;;2.67;2.67;;;;;19.41;52.26;100825.50;5056529;28;45466;-72
2023/08/31 07:21:08;;;;;;;;;5.00;4.00;;;;;19.44;52.26;100825.94;5057497;28;45321;-73
2023/08/31 07:23:34;;;;;;;;;2.67;2.67;;;;;19.36;52.13;100820.69;5057003;28;45423;-71
2023/08/31 07:26:04;;;;;;;;;2.67;2.67;;;;;19.45;51.65;100826.78;5055555;28;45809;-72
2023/08/31 07:28:31;;;;;;;;;4.67;2.00;;;;;19.42;51.94;100827.16;5072443;27;45366;-71
2023/08/31 07:31:03;;;;;;;;;1.33;1.00;;;;;19.43;51.97;100828.84;5057653;28;45320;-71
2023/08/31 07:33:31;;;;;;;;;3.67;3.67;;;;;19.24;51.68;100795.34;5055694;28;45537;-73
2023/08/31 07:35:56;;;;;;;;;2.00;2.00;;;;;18.95;51.14;100734.44;5056959;28;45868;-72
2023/08/31 07:38:21;;;;;;;;;2.33;2.00;;;;;19.43;51.27;100818.06;5056928;28;45521;-71
2023/08/31 07:40:47;;;;;;;;;4.33;2.00;;;;;19.50;51.02;100831.56;5072366;27;45352;-74
2023/08/31 07:43:12;;;;;;;;;4.33;4.33;;;;;19.50;50.98;100835.09;5057529;28;45498;-75
2023/08/31 07:45:37;;;;;;;;;3.00;1.67;;;;;19.58;51.07;100848.44;5071818;27;71475;-73
2023/08/31 07:48:03;;;;;;;;;4.00;3.00;;;;;19.50;51.02;100824.31;5056492;28;45427;-74
2023/08/31 07:50:28;;;;;;;;;4.00;4.00;;;;;19.60;50.87;100830.19;5056593;28;45282;-73
2023/08/31 07:52:54;;;;;;;;;3.67;3.33;;;;;19.73;50.85;100849.13;5055932;28;45153;-74
2023/08/31 07:55:19;;;;;;;;;4.33;3.33;;;;;19.68;50.70;100827.31;5052271;28;48236;-74
2023/08/31 07:57:44;;;;;;;;;15.33;13.67;;;;;19.89;50.43;100856.03;5053399;28;45440;-74
2023/08/31 08:00:10;;;;;;;;;4.00;3.00;;;;;19.88;50.59;100821.16;5056277;28;52531;-73
2023/08/31 08:02:35;;;;;;;;;4.33;4.33;;;;;20.19;50.45;100856.53;5056038;28;46273;-72
2023/08/31 08:05:01;;;;;;;;;5.00;4.00;;;;;20.33;49.91;100841.19;5056381;28;45812;-72
2023/08/31 08:07:27;;;;;;;;;5.00;2.67;;;;;20.43;49.28;100841.69;5081522;27;45241;-72
2023/08/31 08:09:52;;;;;;;;;3.00;3.00;;;;;20.44;49.14;100826.31;5055993;28;45491;-72
2023/08/31 08:12:17;;;;;;;;;3.33;3.33;;;;;20.56;48.32;100830.84;5056817;28;45250;-73
2023/08/31 08:14:43;;;;;;;;;3.67;2.33;;;;;20.64;48.05;100830.69;5052823;28;66682;-75
2023/08/31 08:17:08;;;;;;;;;2.67;2.67;;;;;20.85;47.78;100851.25;5065385;28;45466;-73
2023/08/31 08:19:33;;;;;;;;;3.00;2.00;;;;;20.69;47.46;100819.25;5054508;28;45586;-73
2023/08/31 08:21:58;;;;;;;;;3.33;2.67;;;;;20.92;47.57;100843.94;5056545;28;45516;-74
2023/08/31 08:24:24;;;;;;;;;3.00;3.00;;;;;21.10;47.35;100853.28;5054551;28;49614;-73
2023/08/31 08:26:49;;;;;;;;;2.00;2.00;;;;;21.07;46.66;100829.38;5056059;28;45320;-73
2023/08/31 08:29:14;;;;;;;;;1.33;1.33;;;;;21.35;45.65;100862.41;5071702;27;45510;-74
2023/08/31 08:31:40;;;;;;;;;5.00;3.00;;;;;21.38;45.14;100834.94;5056346;28;45522;-73
2023/08/31 08:34:05;;;;;;;;;5.50;4.00;;;;;21.59;45.00;100838.41;5056042;28;46103;-74
2023/08/31 08:36:31;;;;;;;;;1.00;1.00;;;;;21.90;45.14;100846.63;5057022;28;45536;-73
2023/08/31 08:38:56;;;;;;;;;4.67;3.00;;;;;21.58;44.77;100769.13;5056672;28;45324;-75
2023/08/31 08:41:23;;;;;;;;;4.75;3.00;;;;;22.10;44.89;100838.41;5068437;27;45467;-75
2023/08/31 08:43:51;;;;;;;;;3.00;2.33;;;;;22.21;44.52;100845.00;5071857;27;48603;-75
2023/08/31 08:46:17;;;;;;;;;4.00;1.33;;;;;22.16;44.18;100851.91;5056028;28;45616;-73
2023/08/31 08:48:44;;;;;;;;;5.00;4.00;;;;;22.19;44.31;100853.34;5055219;28;45573;-73
2023/08/31 08:51:10;;;;;;;;;5.00;3.00;;;;;22.08;43.58;100830.53;5055664;28;45372;-73
2023/08/31 08:53:37;;;;;;;;;4.00;3.00;;;;;22.13;43.82;100836.09;5055310;28;45790;-73
2023/08/31 08:56:03;;;;;;;;;5.67;4.00;;;;;22.25;44.33;100847.09;5054284;28;45293;-74
2023/08/31 08:58:29;;;;;;;;;3.00;3.00;;;;;22.06;44.14;100821.78;5055485;28;45512;-71
2023/08/31 09:00:56;;;;;;;;;4.00;4.00;;;;;22.26;44.70;100853.34;5054983;28;45366;-71
2023/08/31 09:03:22;;;;;;;;;3.00;3.00;;;;;22.21;44.42;100861.25;5055676;28;45969;-72
2023/08/31 09:05:47;;;;;;;;;7.00;3.00;;;;;21.77;43.89;100811.50;5071865;27;45575;-72
2023/08/31 09:08:15;;;;;;;;;6.00;2.00;;;;;21.72;43.83;100819.44;5053809;28;45502;-77
2023/08/31 09:10:44;;;;;;;;;5.00;3.00;;;;;21.42;44.04;100803.72;5047815;28;45964;-71
2023/08/31 09:13:40;;;;;;;;;1.33;1.33;;;;;21.66;44.26;100860.88;5053761;28;46585;-71
2023/08/31 09:16:06;;;;;;;;;2.00;2.00;;;;;21.69;46.15;100860.44;5054741;28;45621;-71
2023/08/31 09:18:32;;;;;;;;;2.00;2.00;;;;;21.71;46.47;100861.91;5069836;27;45719;-70
2023/08/31 09:21:00;;;;;;;;;3.50;3.50;;;;;21.79;47.10;100858.94;5055900;28;45431;-71
2023/08/31 09:23:26;;;;;;;;;3.67;2.00;;;;;21.78;46.15;100856.44;5055455;28;46195;-70
2023/08/31 09:25:53;;;;;;;;;3.00;1.67;;;;;21.84;46.35;100861.03;5073734;27;46351;-70
2023/08/31 09:28:21;;;;;;;;;4.00;4.00;;;;;22.04;46.92;100860.94;5056893;28;45605;-71
2023/08/31 09:30:48;;;;;;;;;4.67;4.00;;;;;22.28;45.61;100862.06;5054368;28;45583;-72
2023/08/31 09:33:18;;;;;;;;;3.00;3.00;;;;;22.43;44.81;100868.03;5058909;28;46413;-70
2023/08/31 09:35:51;;;;;;;;;4.00;1.33;;;;;22.52;44.62;100855.84;5058602;28;45502;-71
2023/08/31 09:38:17;;;;;;;;;6.33;5.33;;;;;22.58;44.85;100859.56;5058846;28;45506;-71
2023/08/31 09:40:42;;;;;;;;;3.67;2.33;;;;;22.60;44.93;100844.72;5059484;28;45434;-71
2023/08/31 09:43:07;;;;;;;;;2.33;2.00;;;;;22.68;44.81;100840.94;5058303;28;46221;-71
2023/08/31 09:45:34;;;;;;;;;2.00;2.00;;;;;22.71;44.59;100835.91;5058575;28;45358;-72
2023/08/31 09:48:02;;;;;;;;;4.00;3.00;;;;;22.78;44.75;100846.66;5058474;28;45272;-70
2023/08/31 09:50:33;;;;;;;;;2.33;2.00;;;;;22.60;44.21;100825.75;5057211;28;45260;-69
2023/08/31 09:53:01;;;;;;;;;5.00;4.00;;;;;22.43;44.54;100821.97;5055941;28;47404;-68
2023/08/31 09:55:29;;;;;;;;;4.00;4.00;;;;;22.27;45.17;100822.50;5058172;28;45233;-68
2023/08/31 09:57:56;;;;;;;;;3.00;2.75;;;;;22.39;45.37;100845.09;5058225;28;45340;-67
2023/08/31 10:00:22;;;;;;;;;6.00;4.00;;;;;22.32;45.65;100839.75;5058500;28;45493;-68
2023/08/31 10:02:49;;;;;;;;;2.33;2.00;;;;;22.21;45.56;100832.28;5058277;28;46484;-68
2023/08/31 10:05:15;;;;;;;;;4.00;2.33;;;;;22.17;45.81;100840.03;5073951;27;45252;-69
2023/08/31 10:07:42;;;;;;;;;4.33;4.33;;;;;22.15;46.06;100847.53;5058566;28;45451;-68
2023/08/31 10:10:08;;;;;;;;;4.33;4.00;;;;;21.83;46.07;100789.00;5057103;28;45601;-69
2023/08/31 10:12:35;;;;;;;;;3.00;3.00;;;;;22.15;46.34;100847.53;5069614;28;47811;-67
2023/08/31 10:15:01;;;;;;;;;5.33;3.33;;;;;22.04;47.60;100818.47;5057981;28;45465;-69
2023/08/31 10:17:27;;;;;;;;;4.00;4.00;;;;;22.11;47.89;100829.25;5059975;27;45337;-68
2023/08/31 10:19:54;;;;;;;;;4.67;2.00;;;;;22.00;49.10;100822.59;5058665;28;45273;-68
2023/08/31 10:22:19;;;;;;;;;3.00;3.00;;;;;21.75;49.70;100786.53;5055915;28;47858;-69
2023/08/31 10:25:05;;;;;;;;;7.67;7.00;;;;;22.02;50.11;100819.69;5057855;28;45392;-67
2023/08/31 10:27:41;;;;;;;;;2.33;2.33;;;;;21.95;49.61;100825.13;5058381;28;45490;-68
2023/08/31 10:30:28;;;;;;;;;3.00;3.00;;;;;21.96;50.36;100828.69;5056956;28;45320;-69
2023/08/31 10:33:09;;;;;;;;;8.67;7.33;;;;;21.95;50.75;100822.44;5057803;28;45842;-69
2023/08/31 10:35:55;;;;;;;;;5.00;4.00;;;;;21.93;50.53;100815.56;5057769;28;45416;-69
2023/08/31 10:38:26;;;;;;;;;4.67;4.33;;;;;22.02;50.89;100820.50;5057803;28;45415;-68
2023/08/31 10:41:07;;;;;;;;;4.00;4.00;;;;;22.13;51.51;100827.97;5058086;28;45324;-69
2023/08/31 10:43:52;;;;;;;;;4.67;4.67;;;;;22.15;50.84;100820.47;5057823;28;45454;-69
2023/08/31 10:46:20;;;;;;;;;3.67;3.67;;;;;22.21;50.88;100826.06;5057692;28;45445;-69
2023/08/31 10:48:53;;;;;;;;;5.00;3.33;;;;;22.06;49.56;100816.38;5057693;28;45398;-68
2023/08/31 10:51:22;;;;;;;;;6.33;4.33;;;;;21.69;49.83;100763.03;5058150;28;45335;-72
2023/08/31 10:53:47;;;;;;;;;4.00;2.67;;;;;21.91;50.31;100812.25;5057452;28;45819;-70
2023/08/31 10:56:16;;;;;;;;;6.00;4.33;;;;;21.74;50.23;100779.44;5057767;28;45438;-70
2023/08/31 10:58:41;;;;;;;;;5.00;3.33;;;;;21.88;49.40;100813.53;5057755;28;45431;-69
2023/08/31 11:01:07;;;;;;;;;2.67;2.67;;;;;21.92;49.15;100809.34;5057865;28;45520;-70
2023/08/31 11:03:32;;;;;;;;;7.00;7.00;;;;;21.85;49.31;100809.38;5056215;28;47200;-69
2023/08/31 11:05:57;;;;;;;;;5.00;5.00;;;;;21.84;48.65;100798.78;5057641;28;45249;-69
2023/08/31 11:08:24;;;;;;;;;2.00;2.00;;;;;21.97;48.44;100808.69;5053349;28;45744;-70
2023/08/31 11:10:49;;;;;;;;;4.67;3.00;;;;;22.04;48.27;100804.94;5056553;27;45579;-68
2023/08/31 11:13:23;;;;;;;;;3.33;3.33;;;;;22.04;48.07;100799.53;5057013;28;46063;-67
2023/08/31 11:15:49;;;;;;;;;5.00;3.33;;;;;22.02;47.94;100790.72;5057625;28;45451;-68
2023/08/31 11:18:17;;;;;;;;;3.33;3.00;;;;;22.00;48.01;100806.34;5056772;28;45380;-77
2023/08/31 11:20:43;;;;;;;;;3.67;3.67;;;;;21.92;47.97;100792.25;5057601;27;45326;-69
2023/08/31 11:23:09;;;;;;;;;4.33;4.33;;;;;21.74;48.04;100779.44;5055929;28;47263;-69